Florence, Kansas
Current Conditions -  °F | °C
As of 1:55 PM on Monday 24 Nov 2014 (Local Time) from KEWK Reporting Station
Clear Clear  
Wind Chill: 38°   Ceiling: Unl
Heat Index: 46°   Visibility: 10mi
Dew Point: 19°   Wind: 24mph
Humidity: 34%   Direction: 330°NNW
Pressure: 29.9"   Gusts: 33mph
Location:  38.24°N, 96.93°W
Report Text: KEWK 241955Z AUTO 33021G29KT 10SM CLR 08/M07 A2990 RMK AO1
Loading
Personal Weather Stations






























Interactive Weather Map New forecast layout! Learn more

10-Day Weather Forecast

Advertisements
Track Severe Weather on mobile